sensor_id;sensor_type;location;lat;lon;timestamp;temperature;humidity
34406;DHT22;20658;45.630;8.886;2022-12-04T00:01:49;6.10;99.90
34406;DHT22;20658;45.630;8.886;2022-12-04T00:04:22;6.20;99.90
34406;DHT22;20658;45.630;8.886;2022-12-04T00:06:53;6.10;99.90
34406;DHT22;20658;45.630;8.886;2022-12-04T00:09:22;6.10;99.90
34406;DHT22;20658;45.630;8.886;2022-12-04T00:11:52;6.10;99.90
34406;DHT22;20658;45.630;8.886;2022-12-04T00:14:20;6.20;99.90
34406;DHT22;20658;45.630;8.886;2022-12-04T00:16:49;6.10;99.90
34406;DHT22;20658;45.630;8.886;2022-12-04T00:19:18;6.20;99.90
34406;DHT22;20658;45.630;8.886;2022-12-04T00:21:48;6.20;99.90
34406;DHT22;20658;45.630;8.886;2022-12-04T00:24:17;6.10;99.90
34406;DHT22;20658;45.630;8.886;2022-12-04T00:26:45;6.20;99.90
34406;DHT22;20658;45.630;8.886;2022-12-04T00:29:15;6.20;99.90
34406;DHT22;20658;45.630;8.886;2022-12-04T00:31:49;6.20;99.90
34406;DHT22;20658;45.630;8.886;2022-12-04T00:34:23;6.20;99.90
34406;DHT22;20658;45.630;8.886;2022-12-04T00:36:53;6.20;99.90
34406;DHT22;20658;45.630;8.886;2022-12-04T00:39:22;6.20;99.90
34406;DHT22;20658;45.630;8.886;2022-12-04T00:41:50;6.20;99.90
34406;DHT22;20658;45.630;8.886;2022-12-04T00:44:25;6.30;99.90
34406;DHT22;20658;45.630;8.886;2022-12-04T00:46:59;6.20;99.90
34406;DHT22;20658;45.630;8.886;2022-12-04T00:49:27;6.20;99.90
34406;DHT22;20658;45.630;8.886;2022-12-04T00:51:56;6.20;99.90
34406;DHT22;20658;45.630;8.886;2022-12-04T00:54:24;6.20;99.90
34406;DHT22;20658;45.630;8.886;2022-12-04T00:56:52;6.50;99.90
34406;DHT22;20658;45.630;8.886;2022-12-04T00:59:21;6.20;99.90
34406;DHT22;20658;45.630;8.886;2022-12-04T01:01:51;6.20;99.90
34406;DHT22;20658;45.630;8.886;2022-12-04T01:04:19;6.10;99.90
34406;DHT22;20658;45.630;8.886;2022-12-04T01:06:53;6.20;99.90
34406;DHT22;20658;45.630;8.886;2022-12-04T01:09:22;6.20;99.90
34406;DHT22;20658;45.630;8.886;2022-12-04T01:11:50;6.20;99.90
34406;DHT22;20658;45.630;8.886;2022-12-04T01:14:24;6.10;99.90
34406;DHT22;20658;45.630;8.886;2022-12-04T01:16:59;6.20;99.90
34406;DHT22;20658;45.630;8.886;2022-12-04T01:19:32;6.10;99.90
34406;DHT22;20658;45.630;8.886;2022-12-04T01:22:00;6.20;99.90
34406;DHT22;20658;45.630;8.886;2022-12-04T01:24:34;6.20;99.90
34406;DHT22;20658;45.630;8.886;2022-12-04T01:27:03;6.20;99.90
34406;DHT22;20658;45.630;8.886;2022-12-04T01:29:31;6.20;99.90
34406;DHT22;20658;45.630;8.886;2022-12-04T01:32:01;6.20;99.90
34406;DHT22;20658;45.630;8.886;2022-12-04T01:34:30;6.20;99.90
34406;DHT22;20658;45.630;8.886;2022-12-04T01:37:03;6.20;99.90
34406;DHT22;20658;45.630;8.886;2022-12-04T01:39:37;6.20;99.90
34406;DHT22;20658;45.630;8.886;2022-12-04T01:42:12;6.20;99.90
34406;DHT22;20658;45.630;8.886;2022-12-04T01:48:08;6.20;99.90
34406;DHT22;20658;45.630;8.886;2022-12-04T01:50:41;6.20;99.90
34406;DHT22;20658;45.630;8.886;2022-12-04T01:53:16;6.20;99.90
34406;DHT22;20658;45.630;8.886;2022-12-04T01:55:50;6.20;99.90
34406;DHT22;20658;45.630;8.886;2022-12-04T01:58:28;6.20;99.90
34406;DHT22;20658;45.630;8.886;2022-12-04T02:01:05;6.20;99.90
34406;DHT22;20658;45.630;8.886;2022-12-04T02:03:40;6.20;99.90
34406;DHT22;20658;45.630;8.886;2022-12-04T02:06:14;6.20;99.90
34406;DHT22;20658;45.630;8.886;2022-12-04T02:08:48;6.20;99.90
34406;DHT22;20658;45.630;8.886;2022-12-04T02:11:24;6.20;99.90
34406;DHT22;20658;45.630;8.886;2022-12-04T02:14:06;6.20;99.90
34406;DHT22;20658;45.630;8.886;2022-12-04T02:16:49;6.20;99.90
34406;DHT22;20658;45.630;8.886;2022-12-04T02:19:47;6.30;99.90
34406;DHT22;20658;45.630;8.886;2022-12-04T02:22:44;6.20;99.90
34406;DHT22;20658;45.630;8.886;2022-12-04T02:25:34;6.20;99.90
34406;DHT22;20658;45.630;8.886;2022-12-04T02:28:18;6.20;99.90
34406;DHT22;20658;45.630;8.886;2022-12-04T02:30:51;6.20;99.90
34406;DHT22;20658;45.630;8.886;2022-12-04T02:33:33;6.20;99.90
34406;DHT22;20658;45.630;8.886;2022-12-04T02:36:12;6.20;99.90
34406;DHT22;20658;45.630;8.886;2022-12-04T02:38:54;6.20;99.90
34406;DHT22;20658;45.630;8.886;2022-12-04T02:41:37;6.20;99.90
34406;DHT22;20658;45.630;8.886;2022-12-04T02:44:19;6.20;99.90
34406;DHT22;20658;45.630;8.886;2022-12-04T02:46:51;6.50;99.90
34406;DHT22;20658;45.630;8.886;2022-12-04T02:49:31;6.20;99.90
34406;DHT22;20658;45.630;8.886;2022-12-04T02:52:11;6.20;99.90
34406;DHT22;20658;45.630;8.886;2022-12-04T02:54:49;6.20;99.90
34406;DHT22;20658;45.630;8.886;2022-12-04T02:57:28;6.20;99.90
34406;DHT22;20658;45.630;8.886;2022-12-04T03:00:06;6.30;99.90
34406;DHT22;20658;45.630;8.886;2022-12-04T03:02:45;6.30;99.90
34406;DHT22;20658;45.630;8.886;2022-12-04T03:05:25;6.20;99.90
34406;DHT22;20658;45.630;8.886;2022-12-04T03:08:05;6.30;99.90
34406;DHT22;20658;45.630;8.886;2022-12-04T03:10:44;6.30;99.90
34406;DHT22;20658;45.630;8.886;2022-12-04T03:13:21;6.30;99.90
34406;DHT22;20658;45.630;8.886;2022-12-04T03:16:00;6.30;99.90
34406;DHT22;20658;45.630;8.886;2022-12-04T03:18:40;6.30;99.90
34406;DHT22;20658;45.630;8.886;2022-12-04T03:21:17;6.30;99.90
34406;DHT22;20658;45.630;8.886;2022-12-04T03:23:56;6.30;99.90
34406;DHT22;20658;45.630;8.886;2022-12-04T03:26:35;6.30;99.90
34406;DHT22;20658;45.630;8.886;2022-12-04T03:29:13;6.30;99.90
34406;DHT22;20658;45.630;8.886;2022-12-04T03:31:53;6.30;99.90
34406;DHT22;20658;45.630;8.886;2022-12-04T03:34:33;6.30;99.90
34406;DHT22;20658;45.630;8.886;2022-12-04T03:37:14;6.30;99.90
34406;DHT22;20658;45.630;8.886;2022-12-04T03:39:55;6.40;99.90
34406;DHT22;20658;45.630;8.886;2022-12-04T03:42:34;6.40;99.90
34406;DHT22;20658;45.630;8.886;2022-12-04T03:45:14;6.40;99.90
34406;DHT22;20658;45.630;8.886;2022-12-04T03:47:58;6.70;99.90
34406;DHT22;20658;45.630;8.886;2022-12-04T03:50:37;6.30;99.90
34406;DHT22;20658;45.630;8.886;2022-12-04T03:53:16;6.30;99.90
34406;DHT22;20658;45.630;8.886;2022-12-04T03:55:50;6.30;99.90
34406;DHT22;20658;45.630;8.886;2022-12-04T03:58:32;6.30;99.90
34406;DHT22;20658;45.630;8.886;2022-12-04T04:01:09;6.30;99.90
34406;DHT22;20658;45.630;8.886;2022-12-04T04:03:48;6.30;99.90
34406;DHT22;20658;45.630;8.886;2022-12-04T04:06:27;6.30;99.90
34406;DHT22;20658;45.630;8.886;2022-12-04T04:09:09;6.30;99.90
34406;DHT22;20658;45.630;8.886;2022-12-04T04:11:48;6.30;99.90
34406;DHT22;20658;45.630;8.886;2022-12-04T04:14:25;6.30;99.90
34406;DHT22;20658;45.630;8.886;2022-12-04T04:17:22;6.30;99.90
34406;DHT22;20658;45.630;8.886;2022-12-04T04:20:19;6.30;99.90
34406;DHT22;20658;45.630;8.886;2022-12-04T04:23:14;6.30;99.90
34406;DHT22;20658;45.630;8.886;2022-12-04T04:26:08;6.30;99.90
34406;DHT22;20658;45.630;8.886;2022-12-04T04:28:45;6.30;99.90
34406;DHT22;20658;45.630;8.886;2022-12-04T04:31:25;6.30;99.90
34406;DHT22;20658;45.630;8.886;2022-12-04T04:34:11;6.30;99.90
34406;DHT22;20658;45.630;8.886;2022-12-04T04:36:54;6.30;99.90
34406;DHT22;20658;45.630;8.886;2022-12-04T04:39:35;6.30;99.90
34406;DHT22;20658;45.630;8.886;2022-12-04T04:42:15;6.20;99.90
34406;DHT22;20658;45.630;8.886;2022-12-04T04:44:58;6.20;99.90
34406;DHT22;20658;45.630;8.886;2022-12-04T04:47:32;6.20;99.90
34406;DHT22;20658;45.630;8.886;2022-12-04T04:50:10;6.20;99.90
34406;DHT22;20658;45.630;8.886;2022-12-04T04:52:49;6.20;99.90
34406;DHT22;20658;45.630;8.886;2022-12-04T04:55:20;6.20;99.90
34406;DHT22;20658;45.630;8.886;2022-12-04T04:58:05;6.20;99.90
34406;DHT22;20658;45.630;8.886;2022-12-04T05:00:40;6.20;99.90
34406;DHT22;20658;45.630;8.886;2022-12-04T05:03:23;6.20;99.90
34406;DHT22;20658;45.630;8.886;2022-12-04T05:05:57;6.20;99.90
34406;DHT22;20658;45.630;8.886;2022-12-04T05:08:26;6.20;99.90
34406;DHT22;20658;45.630;8.886;2022-12-04T05:11:00;6.60;99.90
34406;DHT22;20658;45.630;8.886;2022-12-04T05:13:29;6.20;99.90
34406;DHT22;20658;45.630;8.886;2022-12-04T05:15:59;6.30;99.90
34406;DHT22;20658;45.630;8.886;2022-12-04T05:18:34;6.30;99.90
34406;DHT22;20658;45.630;8.886;2022-12-04T05:21:09;6.30;99.90
34406;DHT22;20658;45.630;8.886;2022-12-04T05:23:50;6.30;99.90
34406;DHT22;20658;45.630;8.886;2022-12-04T05:26:23;6.30;99.90
34406;DHT22;20658;45.630;8.886;2022-12-04T05:28:57;6.30;99.90
34406;DHT22;20658;45.630;8.886;2022-12-04T05:31:30;6.30;99.90
34406;DHT22;20658;45.630;8.886;2022-12-04T05:34:03;6.30;99.90
34406;DHT22;20658;45.630;8.886;2022-12-04T05:36:37;6.30;99.90
34406;DHT22;20658;45.630;8.886;2022-12-04T05:39:06;6.30;99.90
34406;DHT22;20658;45.630;8.886;2022-12-04T05:41:40;6.30;99.90
34406;DHT22;20658;45.630;8.886;2022-12-04T05:44:13;6.20;99.90
34406;DHT22;20658;45.630;8.886;2022-12-04T05:46:47;6.20;99.90
34406;DHT22;20658;45.630;8.886;2022-12-04T05:49:20;6.40;99.90
34406;DHT22;20658;45.630;8.886;2022-12-04T05:51:54;6.20;99.90
34406;DHT22;20658;45.630;8.886;2022-12-04T05:54:29;6.30;99.90
34406;DHT22;20658;45.630;8.886;2022-12-04T05:57:02;6.20;99.90
34406;DHT22;20658;45.630;8.886;2022-12-04T05:59:31;6.20;99.90
34406;DHT22;20658;45.630;8.886;2022-12-04T06:02:04;6.20;99.90
34406;DHT22;20658;45.630;8.886;2022-12-04T06:04:38;6.20;99.90
34406;DHT22;20658;45.630;8.886;2022-12-04T06:07:11;6.30;99.90
34406;DHT22;20658;45.630;8.886;2022-12-04T06:09:41;6.30;99.90
34406;DHT22;20658;45.630;8.886;2022-12-04T06:12:10;6.30;99.90
34406;DHT22;20658;45.630;8.886;2022-12-04T06:14:38;6.30;99.90
34406;DHT22;20658;45.630;8.886;2022-12-04T06:17:12;6.20;99.90
34406;DHT22;20658;45.630;8.886;2022-12-04T06:19:45;6.30;99.90
34406;DHT22;20658;45.630;8.886;2022-12-04T06:22:19;6.30;99.90
34406;DHT22;20658;45.630;8.886;2022-12-04T06:24:54;6.20;99.90
34406;DHT22;20658;45.630;8.886;2022-12-04T06:27:27;6.30;99.90
34406;DHT22;20658;45.630;8.886;2022-12-04T06:30:01;6.30;99.90
34406;DHT22;20658;45.630;8.886;2022-12-04T06:32:29;6.30;99.90
34406;DHT22;20658;45.630;8.886;2022-12-04T06:35:03;6.30;99.90
34406;DHT22;20658;45.630;8.886;2022-12-04T06:37:37;6.40;99.90
34406;DHT22;20658;45.630;8.886;2022-12-04T06:40:12;6.30;99.90
34406;DHT22;20658;45.630;8.886;2022-12-04T06:42:46;6.70;99.90
34406;DHT22;20658;45.630;8.886;2022-12-04T06:45:19;6.30;99.90
34406;DHT22;20658;45.630;8.886;2022-12-04T06:47:52;6.30;99.90
34406;DHT22;20658;45.630;8.886;2022-12-04T06:50:26;6.30;99.90
34406;DHT22;20658;45.630;8.886;2022-12-04T06:52:59;6.30;99.90
34406;DHT22;20658;45.630;8.886;2022-12-04T06:55:34;6.20;99.90
34406;DHT22;20658;45.630;8.886;2022-12-04T06:58:07;6.20;99.90
34406;DHT22;20658;45.630;8.886;2022-12-04T07:00:36;6.20;99.90
34406;DHT22;20658;45.630;8.886;2022-12-04T07:03:09;6.20;99.90
34406;DHT22;20658;45.630;8.886;2022-12-04T07:05:43;6.20;99.90
34406;DHT22;20658;45.630;8.886;2022-12-04T07:08:16;6.20;99.90
34406;DHT22;20658;45.630;8.886;2022-12-04T07:10:51;6.20;99.90
34406;DHT22;20658;45.630;8.886;2022-12-04T07:13:25;6.20;99.90
34406;DHT22;20658;45.630;8.886;2022-12-04T07:15:53;6.20;99.90
34406;DHT22;20658;45.630;8.886;2022-12-04T07:18:27;6.30;99.90
34406;DHT22;20658;45.630;8.886;2022-12-04T07:20:56;6.30;99.90
34406;DHT22;20658;45.630;8.886;2022-12-04T07:23:24;6.40;99.90
34406;DHT22;20658;45.630;8.886;2022-12-04T07:26:03;6.30;99.90
34406;DHT22;20658;45.630;8.886;2022-12-04T07:28:38;6.40;99.90
34406;DHT22;20658;45.630;8.886;2022-12-04T07:31:14;6.40;99.90
34406;DHT22;20658;45.630;8.886;2022-12-04T07:33:49;6.40;99.90
34406;DHT22;20658;45.630;8.886;2022-12-04T07:36:25;6.40;99.90
34406;DHT22;20658;45.630;8.886;2022-12-04T07:38:58;6.40;99.90
34406;DHT22;20658;45.630;8.886;2022-12-04T07:41:33;6.50;99.90
34406;DHT22;20658;45.630;8.886;2022-12-04T07:44:07;6.90;99.90
34406;DHT22;20658;45.630;8.886;2022-12-04T07:46:41;6.50;99.90
34406;DHT22;20658;45.630;8.886;2022-12-04T07:49:14;6.50;99.90
34406;DHT22;20658;45.630;8.886;2022-12-04T07:51:47;6.50;99.90
34406;DHT22;20658;45.630;8.886;2022-12-04T07:54:16;6.50;99.90
34406;DHT22;20658;45.630;8.886;2022-12-04T07:56:50;7.10;99.90
34406;DHT22;20658;45.630;8.886;2022-12-04T07:59:24;6.50;99.90
34406;DHT22;20658;45.630;8.886;2022-12-04T08:01:57;6.50;99.90
34406;DHT22;20658;45.630;8.886;2022-12-04T08:04:31;6.60;99.90
34406;DHT22;20658;45.630;8.886;2022-12-04T08:07:04;6.60;99.90
34406;DHT22;20658;45.630;8.886;2022-12-04T08:09:38;6.60;99.90
34406;DHT22;20658;45.630;8.886;2022-12-04T08:12:13;6.60;99.90
34406;DHT22;20658;45.630;8.886;2022-12-04T08:14:48;6.60;99.90
34406;DHT22;20658;45.630;8.886;2022-12-04T08:17:21;6.60;99.90
34406;DHT22;20658;45.630;8.886;2022-12-04T08:19:55;6.60;99.90
34406;DHT22;20658;45.630;8.886;2022-12-04T08:22:28;6.60;99.90
34406;DHT22;20658;45.630;8.886;2022-12-04T08:25:02;6.70;99.90
34406;DHT22;20658;45.630;8.886;2022-12-04T08:27:37;6.70;99.90
34406;DHT22;20658;45.630;8.886;2022-12-04T08:30:12;6.70;99.90
34406;DHT22;20658;45.630;8.886;2022-12-04T08:32:46;6.70;99.90
34406;DHT22;20658;45.630;8.886;2022-12-04T08:35:19;6.80;99.90
34406;DHT22;20658;45.630;8.886;2022-12-04T08:37:52;6.70;99.90
34406;DHT22;20658;45.630;8.886;2022-12-04T08:40:26;6.70;99.90
34406;DHT22;20658;45.630;8.886;2022-12-04T08:43:01;6.70;99.90
34406;DHT22;20658;45.630;8.886;2022-12-04T08:45:34;6.70;99.90
34406;DHT22;20658;45.630;8.886;2022-12-04T08:48:07;7.00;99.90
34406;DHT22;20658;45.630;8.886;2022-12-04T08:50:43;6.70;99.90
34406;DHT22;20658;45.630;8.886;2022-12-04T08:53:17;6.70;99.90
34406;DHT22;20658;45.630;8.886;2022-12-04T08:55:51;6.70;99.90
34406;DHT22;20658;45.630;8.886;2022-12-04T08:58:26;6.70;99.90
34406;DHT22;20658;45.630;8.886;2022-12-04T09:01:03;6.70;99.90
34406;DHT22;20658;45.630;8.886;2022-12-04T09:03:38;6.70;99.90
34406;DHT22;20658;45.630;8.886;2022-12-04T09:06:13;6.70;99.90
34406;DHT22;20658;45.630;8.886;2022-12-04T09:08:51;6.80;99.90
34406;DHT22;20658;45.630;8.886;2022-12-04T09:11:27;6.80;99.90
34406;DHT22;20658;45.630;8.886;2022-12-04T09:14:03;6.80;99.90
34406;DHT22;20658;45.630;8.886;2022-12-04T09:16:37;6.80;99.90
34406;DHT22;20658;45.630;8.886;2022-12-04T09:19:11;6.80;99.90
34406;DHT22;20658;45.630;8.886;2022-12-04T09:21:46;6.80;99.90
34406;DHT22;20658;45.630;8.886;2022-12-04T09:24:20;6.80;99.90
34406;DHT22;20658;45.630;8.886;2022-12-04T09:26:53;6.90;99.90
34406;DHT22;20658;45.630;8.886;2022-12-04T09:29:29;6.90;99.90
34406;DHT22;20658;45.630;8.886;2022-12-04T09:32:03;6.80;99.90
34406;DHT22;20658;45.630;8.886;2022-12-04T09:34:37;6.80;99.90
34406;DHT22;20658;45.630;8.886;2022-12-04T09:37:10;6.90;99.90
34406;DHT22;20658;45.630;8.886;2022-12-04T09:39:44;6.90;99.90
34406;DHT22;20658;45.630;8.886;2022-12-04T09:42:36;6.90;99.90
34406;DHT22;20658;45.630;8.886;2022-12-04T09:45:17;7.00;99.90
34406;DHT22;20658;45.630;8.886;2022-12-04T09:47:55;7.00;99.90
34406;DHT22;20658;45.630;8.886;2022-12-04T09:50:33;7.00;99.90
34406;DHT22;20658;45.630;8.886;2022-12-04T09:53:11;7.00;99.90
34406;DHT22;20658;45.630;8.886;2022-12-04T09:55:53;7.00;99.90
34406;DHT22;20658;45.630;8.886;2022-12-04T09:58:31;7.00;99.90
34406;DHT22;20658;45.630;8.886;2022-12-04T10:01:20;7.00;99.90
34406;DHT22;20658;45.630;8.886;2022-12-04T10:03:55;7.00;99.90
34406;DHT22;20658;45.630;8.886;2022-12-04T10:06:33;7.10;99.90
34406;DHT22;20658;45.630;8.886;2022-12-04T10:09:16;7.10;99.90
34406;DHT22;20658;45.630;8.886;2022-12-04T10:12:00;7.10;99.90
34406;DHT22;20658;45.630;8.886;2022-12-04T10:14:48;7.20;99.90
34406;DHT22;20658;45.630;8.886;2022-12-04T10:17:43;7.20;99.90
34406;DHT22;20658;45.630;8.886;2022-12-04T10:20:51;7.30;99.90
34406;DHT22;20658;45.630;8.886;2022-12-04T10:23:43;7.30;99.90
34406;DHT22;20658;45.630;8.886;2022-12-04T10:26:27;7.40;99.90
34406;DHT22;20658;45.630;8.886;2022-12-04T10:29:07;7.40;99.90
34406;DHT22;20658;45.630;8.886;2022-12-04T10:31:44;7.40;99.90
34406;DHT22;20658;45.630;8.886;2022-12-04T10:34:22;7.50;99.90
34406;DHT22;20658;45.630;8.886;2022-12-04T10:37:00;7.50;99.90
34406;DHT22;20658;45.630;8.886;2022-12-04T10:39:41;7.50;99.90
34406;DHT22;20658;45.630;8.886;2022-12-04T10:42:24;7.60;99.90
34406;DHT22;20658;45.630;8.886;2022-12-04T10:45:02;7.50;99.90
34406;DHT22;20658;45.630;8.886;2022-12-04T10:47:44;7.70;99.90
34406;DHT22;20658;45.630;8.886;2022-12-04T10:50:23;7.80;99.90
34406;DHT22;20658;45.630;8.886;2022-12-04T10:52:56;7.90;99.90
34406;DHT22;20658;45.630;8.886;2022-12-04T10:55:31;8.00;99.90
34406;DHT22;20658;45.630;8.886;2022-12-04T10:58:14;8.10;99.90
34406;DHT22;20658;45.630;8.886;2022-12-04T11:00:59;8.20;99.90
34406;DHT22;20658;45.630;8.886;2022-12-04T11:03:31;8.30;99.90
34406;DHT22;20658;45.630;8.886;2022-12-04T11:06:08;8.30;99.90
34406;DHT22;20658;45.630;8.886;2022-12-04T11:08:47;8.30;99.90
34406;DHT22;20658;45.630;8.886;2022-12-04T11:11:27;8.40;99.90
34406;DHT22;20658;45.630;8.886;2022-12-04T11:14:05;8.30;99.90
34406;DHT22;20658;45.630;8.886;2022-12-04T11:16:47;8.40;99.90
34406;DHT22;20658;45.630;8.886;2022-12-04T11:19:25;8.40;99.90
34406;DHT22;20658;45.630;8.886;2022-12-04T11:22:08;8.40;99.90
34406;DHT22;20658;45.630;8.886;2022-12-04T11:24:49;8.50;99.90
34406;DHT22;20658;45.630;8.886;2022-12-04T11:27:30;8.60;99.90
34406;DHT22;20658;45.630;8.886;2022-12-04T11:30:09;8.70;99.90
34406;DHT22;20658;45.630;8.886;2022-12-04T11:32:46;8.60;99.90
34406;DHT22;20658;45.630;8.886;2022-12-04T11:35:22;8.60;99.90
34406;DHT22;20658;45.630;8.886;2022-12-04T11:38:03;8.60;99.90
34406;DHT22;20658;45.630;8.886;2022-12-04T11:40:44;8.60;99.90
34406;DHT22;20658;45.630;8.886;2022-12-04T11:43:19;8.50;99.90
34406;DHT22;20658;45.630;8.886;2022-12-04T11:45:54;8.50;99.90
34406;DHT22;20658;45.630;8.886;2022-12-04T11:48:24;8.40;99.90
34406;DHT22;20658;45.630;8.886;2022-12-04T11:51:05;8.40;99.90
34406;DHT22;20658;45.630;8.886;2022-12-04T11:53:49;8.40;99.90
34406;DHT22;20658;45.630;8.886;2022-12-04T11:56:28;8.40;99.90
34406;DHT22;20658;45.630;8.886;2022-12-04T11:59:25;8.50;99.90
34406;DHT22;20658;45.630;8.886;2022-12-04T12:02:22;8.50;99.90
34406;DHT22;20658;45.630;8.886;2022-12-04T12:05:20;8.50;99.90
34406;DHT22;20658;45.630;8.886;2022-12-04T12:08:05;8.60;99.90
34406;DHT22;20658;45.630;8.886;2022-12-04T12:10:47;8.60;99.90
34406;DHT22;20658;45.630;8.886;2022-12-04T12:13:30;8.80;99.90
34406;DHT22;20658;45.630;8.886;2022-12-04T12:16:14;8.80;99.90
34406;DHT22;20658;45.630;8.886;2022-12-04T12:19:01;8.80;99.90
34406;DHT22;20658;45.630;8.886;2022-12-04T12:21:50;8.80;99.90
34406;DHT22;20658;45.630;8.886;2022-12-04T12:24:29;8.80;99.90
34406;DHT22;20658;45.630;8.886;2022-12-04T12:27:31;8.80;99.90
34406;DHT22;20658;45.630;8.886;2022-12-04T12:30:14;8.90;99.90
34406;DHT22;20658;45.630;8.886;2022-12-04T12:32:57;8.80;99.90
34406;DHT22;20658;45.630;8.886;2022-12-04T12:35:36;8.80;99.90
34406;DHT22;20658;45.630;8.886;2022-12-04T12:38:15;8.80;99.90
34406;DHT22;20658;45.630;8.886;2022-12-04T12:40:57;8.80;99.90
34406;DHT22;20658;45.630;8.886;2022-12-04T12:43:38;9.00;99.90
34406;DHT22;20658;45.630;8.886;2022-12-04T12:46:15;9.10;99.90
34406;DHT22;20658;45.630;8.886;2022-12-04T12:48:59;9.20;99.90
34406;DHT22;20658;45.630;8.886;2022-12-04T12:51:38;9.50;99.90
34406;DHT22;20658;45.630;8.886;2022-12-04T12:54:27;9.80;99.90
34406;DHT22;20658;45.630;8.886;2022-12-04T12:57:06;10.10;99.90
34406;DHT22;20658;45.630;8.886;2022-12-04T12:59:47;10.00;99.90
34406;DHT22;20658;45.630;8.886;2022-12-04T13:02:28;10.00;99.80
34406;DHT22;20658;45.630;8.886;2022-12-04T13:05:06;9.90;99.90
34406;DHT22;20658;45.630;8.886;2022-12-04T13:07:46;9.90;99.90
34406;DHT22;20658;45.630;8.886;2022-12-04T13:10:26;9.80;99.90
34406;DHT22;20658;45.630;8.886;2022-12-04T13:13:05;9.60;99.70
34406;DHT22;20658;45.630;8.886;2022-12-04T13:15:44;9.50;99.90
34406;DHT22;20658;45.630;8.886;2022-12-04T13:18:24;9.30;99.90
34406;DHT22;20658;45.630;8.886;2022-12-04T13:21:02;9.30;99.90
34406;DHT22;20658;45.630;8.886;2022-12-04T13:23:46;9.20;99.90
34406;DHT22;20658;45.630;8.886;2022-12-04T13:26:33;9.20;99.90
34406;DHT22;20658;45.630;8.886;2022-12-04T13:29:16;9.20;99.90
34406;DHT22;20658;45.630;8.886;2022-12-04T13:32:05;9.30;99.90
34406;DHT22;20658;45.630;8.886;2022-12-04T13:34:53;9.30;99.90
34406;DHT22;20658;45.630;8.886;2022-12-04T13:37:47;9.30;99.90
34406;DHT22;20658;45.630;8.886;2022-12-04T13:40:34;9.30;99.90
34406;DHT22;20658;45.630;8.886;2022-12-04T13:43:29;9.60;99.90
34406;DHT22;20658;45.630;8.886;2022-12-04T13:46:07;9.60;99.90
34406;DHT22;20658;45.630;8.886;2022-12-04T13:49:06;9.70;99.90
34406;DHT22;20658;45.630;8.886;2022-12-04T13:51:42;9.80;99.90
34406;DHT22;20658;45.630;8.886;2022-12-04T13:54:27;9.90;99.90
34406;DHT22;20658;45.630;8.886;2022-12-04T13:57:19;9.80;99.90
34406;DHT22;20658;45.630;8.886;2022-12-04T14:00:02;9.80;99.90
34406;DHT22;20658;45.630;8.886;2022-12-04T14:02:47;9.70;99.90
34406;DHT22;20658;45.630;8.886;2022-12-04T14:05:29;9.70;99.90
34406;DHT22;20658;45.630;8.886;2022-12-04T14:08:06;9.60;99.90
34406;DHT22;20658;45.630;8.886;2022-12-04T14:10:57;9.50;99.90
34406;DHT22;20658;45.630;8.886;2022-12-04T14:13:41;9.50;99.90
34406;DHT22;20658;45.630;8.886;2022-12-04T14:16:19;9.50;99.90
34406;DHT22;20658;45.630;8.886;2022-12-04T14:18:56;9.50;99.90
34406;DHT22;20658;45.630;8.886;2022-12-04T14:21:39;9.50;99.90
34406;DHT22;20658;45.630;8.886;2022-12-04T14:24:16;9.50;99.90
34406;DHT22;20658;45.630;8.886;2022-12-04T14:27:02;9.40;99.90
34406;DHT22;20658;45.630;8.886;2022-12-04T14:30:04;9.40;99.90
34406;DHT22;20658;45.630;8.886;2022-12-04T14:32:43;9.40;99.90
34406;DHT22;20658;45.630;8.886;2022-12-04T14:35:14;9.40;99.90
34406;DHT22;20658;45.630;8.886;2022-12-04T14:37:54;9.40;99.90
34406;DHT22;20658;45.630;8.886;2022-12-04T14:40:35;9.30;99.90
34406;DHT22;20658;45.630;8.886;2022-12-04T14:43:13;9.20;99.90
34406;DHT22;20658;45.630;8.886;2022-12-04T14:45:55;9.20;99.90
34406;DHT22;20658;45.630;8.886;2022-12-04T14:48:36;9.20;99.90
34406;DHT22;20658;45.630;8.886;2022-12-04T14:51:16;9.10;99.90
34406;DHT22;20658;45.630;8.886;2022-12-04T14:54:01;9.10;99.90
34406;DHT22;20658;45.630;8.886;2022-12-04T14:56:49;9.10;99.90
34406;DHT22;20658;45.630;8.886;2022-12-04T14:59:38;9.10;99.90
34406;DHT22;20658;45.630;8.886;2022-12-04T15:02:17;9.10;99.90
34406;DHT22;20658;45.630;8.886;2022-12-04T15:04:52;9.10;99.90
34406;DHT22;20658;45.630;8.886;2022-12-04T15:07:28;9.00;99.90
34406;DHT22;20658;45.630;8.886;2022-12-04T15:10:18;9.00;99.90
34406;DHT22;20658;45.630;8.886;2022-12-04T15:13:10;8.90;99.90
34406;DHT22;20658;45.630;8.886;2022-12-04T15:15:47;8.90;99.90
34406;DHT22;20658;45.630;8.886;2022-12-04T15:18:20;8.80;99.90
34406;DHT22;20658;45.630;8.886;2022-12-04T15:20:56;8.80;99.90
34406;DHT22;20658;45.630;8.886;2022-12-04T15:23:35;8.80;99.90
34406;DHT22;20658;45.630;8.886;2022-12-04T15:26:14;8.80;99.90
34406;DHT22;20658;45.630;8.886;2022-12-04T15:28:52;8.70;99.90
34406;DHT22;20658;45.630;8.886;2022-12-04T15:31:24;8.70;99.90
34406;DHT22;20658;45.630;8.886;2022-12-04T15:34:01;8.70;99.90
34406;DHT22;20658;45.630;8.886;2022-12-04T15:36:43;8.70;99.90
34406;DHT22;20658;45.630;8.886;2022-12-04T15:39:22;8.70;99.90
34406;DHT22;20658;45.630;8.886;2022-12-04T15:42:05;8.60;99.90
34406;DHT22;20658;45.630;8.886;2022-12-04T15:44:52;8.60;99.90
34406;DHT22;20658;45.630;8.886;2022-12-04T15:47:35;8.60;99.90
34406;DHT22;20658;45.630;8.886;2022-12-04T15:50:20;8.60;99.90
34406;DHT22;20658;45.630;8.886;2022-12-04T15:52:58;8.60;99.90
34406;DHT22;20658;45.630;8.886;2022-12-04T15:55:37;8.50;99.90
34406;DHT22;20658;45.630;8.886;2022-12-04T15:58:18;8.50;99.90
34406;DHT22;20658;45.630;8.886;2022-12-04T16:00:56;8.50;99.90
34406;DHT22;20658;45.630;8.886;2022-12-04T16:03:35;8.40;99.90
34406;DHT22;20658;45.630;8.886;2022-12-04T16:06:16;8.40;99.90
34406;DHT22;20658;45.630;8.886;2022-12-04T16:08:53;8.40;99.90
34406;DHT22;20658;45.630;8.886;2022-12-04T16:11:36;8.40;99.90
34406;DHT22;20658;45.630;8.886;2022-12-04T16:14:16;8.40;99.90
34406;DHT22;20658;45.630;8.886;2022-12-04T16:16:51;8.30;99.90
34406;DHT22;20658;45.630;8.886;2022-12-04T16:19:28;8.30;99.90
34406;DHT22;20658;45.630;8.886;2022-12-04T16:22:09;8.20;99.90
34406;DHT22;20658;45.630;8.886;2022-12-04T16:24:45;8.20;99.90
34406;DHT22;20658;45.630;8.886;2022-12-04T16:27:22;8.10;99.90
34406;DHT22;20658;45.630;8.886;2022-12-04T16:29:57;8.10;99.90
34406;DHT22;20658;45.630;8.886;2022-12-04T16:32:31;8.10;99.90
34406;DHT22;20658;45.630;8.886;2022-12-04T16:35:06;8.10;99.90
34406;DHT22;20658;45.630;8.886;2022-12-04T16:37:41;8.10;99.90
34406;DHT22;20658;45.630;8.886;2022-12-04T16:40:16;8.20;99.90
34406;DHT22;20658;45.630;8.886;2022-12-04T16:42:49;8.10;99.90
34406;DHT22;20658;45.630;8.886;2022-12-04T16:45:27;8.10;99.90
34406;DHT22;20658;45.630;8.886;2022-12-04T16:48:01;8.00;99.90
34406;DHT22;20658;45.630;8.886;2022-12-04T16:50:35;8.00;99.90
34406;DHT22;20658;45.630;8.886;2022-12-04T16:53:13;8.10;99.90
34406;DHT22;20658;45.630;8.886;2022-12-04T16:55:49;8.00;99.90